Time;durP1;ratioP1;P1;durP2;ratioP2;P2;SDS_P1;SDS_P2;PMS_P1;PMS_P2;Temp;Humidity;BMP_temperature;BMP_pressure;BME280_temperature;BME280_humidity;BME280_pressure;Samples;Min_cycle;Max_cycle;Signal;HPM_P1;HPM_P2
2024/03/31 00:01:03;;;;;;;6.83;4.50;;;9.90;99.90;;;;;;5015685;28;20567;-85
2024/03/31 00:03:29;;;;;;;7.43;3.90;;;9.90;99.90;;;;;;5032106;28;20069;-85
2024/03/31 00:05:55;;;;;;;7.50;4.20;;;9.80;99.90;;;;;;5031636;28;20056;-85
2024/03/31 00:08:21;;;;;;;5.87;3.67;;;9.90;99.90;;;;;;5031903;28;20141;-85
2024/03/31 00:10:46;;;;;;;7.07;3.90;;;9.90;99.90;;;;;;5032363;28;20036;-85
2024/03/31 00:13:12;;;;;;;6.30;4.00;;;9.90;99.90;;;;;;5031817;28;20104;-86
2024/03/31 00:15:38;;;;;;;6.30;4.10;;;9.90;99.90;;;;;;5016188;28;20060;-85
2024/03/31 00:18:04;;;;;;;7.20;4.77;;;10.00;99.90;;;;;;5014210;28;20533;-85
2024/03/31 00:20:29;;;;;;;7.87;4.20;;;10.00;99.90;;;;;;5013487;28;20383;-85
2024/03/31 00:22:55;;;;;;;4.70;2.80;;;10.00;99.90;;;;;;5029249;28;20462;-85
2024/03/31 00:25:21;;;;;;;6.73;4.10;;;10.00;99.90;;;;;;5013373;28;20033;-85
2024/03/31 00:27:46;;;;;;;6.37;3.87;;;10.00;99.90;;;;;;5028798;28;20029;-85
2024/03/31 00:30:12;;;;;;;7.10;4.33;;;10.00;99.90;;;;;;5012466;28;20034;-86
2024/03/31 00:32:37;;;;;;;7.47;4.80;;;10.00;99.90;;;;;;5028772;28;20390;-85
2024/03/31 00:35:03;;;;;;;7.57;4.60;;;10.10;99.90;;;;;;5014258;28;20053;-85
2024/03/31 00:37:29;;;;;;;6.93;4.40;;;10.10;99.90;;;;;;5013743;28;20030;-82
2024/03/31 00:39:55;;;;;;;10.20;5.67;;;10.10;99.90;;;;;;5013587;28;20026;-83
2024/03/31 00:42:21;;;;;;;9.23;5.07;;;10.10;99.90;;;;;;5028560;28;20030;-85
2024/03/31 00:44:46;;;;;;;9.10;5.53;;;10.10;99.90;;;;;;5013556;28;20017;-84
2024/03/31 00:47:12;;;;;;;10.07;6.13;;;10.00;99.90;;;;;;5013334;28;20034;-83
2024/03/31 00:49:38;;;;;;;11.03;6.57;;;10.10;99.90;;;;;;5013605;28;20026;-83
2024/03/31 00:52:04;;;;;;;11.80;7.07;;;10.10;99.90;;;;;;5013240;28;20080;-84
2024/03/31 00:54:32;;;;;;;11.73;7.30;;;10.00;99.90;;;;;;5013332;28;20061;-84
2024/03/31 00:56:58;;;;;;;16.30;10.13;;;10.10;99.90;;;;;;5028228;28;20026;-85
2024/03/31 00:59:24;;;;;;;15.80;10.47;;;10.10;99.90;;;;;;5028558;28;20032;-84
2024/03/31 01:01:50;;;;;;;19.90;12.10;;;10.00;99.90;;;;;;5013450;28;20018;-84
2024/03/31 01:04:16;;;;;;;19.77;12.53;;;10.10;99.90;;;;;;5013285;28;20018;-83
2024/03/31 01:06:42;;;;;;;19.87;11.77;;;10.10;99.90;;;;;;5013369;28;20494;-83
2024/03/31 01:09:08;;;;;;;19.60;11.47;;;10.10;99.90;;;;;;5013481;28;20050;-83
2024/03/31 01:11:35;;;;;;;17.80;11.50;;;10.10;99.90;;;;;;5013089;28;20421;-84
2024/03/31 01:14:03;;;;;;;20.03;12.40;;;10.10;99.90;;;;;;5028316;28;20085;-84
2024/03/31 01:16:29;;;;;;;19.33;12.43;;;10.10;99.90;;;;;;5013404;28;20398;-85
2024/03/31 01:18:55;;;;;;;22.23;13.77;;;10.10;99.90;;;;;;5028279;28;20121;-85
2024/03/31 01:21:23;;;;;;;17.73;11.87;;;10.00;99.90;;;;;;5028574;28;20018;-84
2024/03/31 01:24:00;;;;;;;17.57;11.10;;;10.10;99.90;;;;;;5013153;28;20022;-84
2024/03/31 01:26:27;;;;;;;19.00;12.20;;;10.10;99.90;;;;;;5013266;28;20018;-84
2024/03/31 01:28:53;;;;;;;16.70;11.07;;;10.10;99.90;;;;;;5028332;28;20376;-84
2024/03/31 01:31:20;;;;;;;16.70;10.10;;;10.10;99.90;;;;;;5012726;28;20028;-83
2024/03/31 01:33:46;;;;;;;16.60;10.53;;;10.10;99.90;;;;;;5012878;28;20390;-84
2024/03/31 01:36:12;;;;;;;16.57;11.20;;;10.10;99.90;;;;;;5013283;28;20033;-86
2024/03/31 01:38:38;;;;;;;15.57;10.32;;;10.10;99.90;;;;;;5016550;28;20509;-83
2024/03/31 01:41:04;;;;;;;16.87;10.70;;;10.10;99.90;;;;;;5017028;28;20026;-83
2024/03/31 01:43:29;;;;;;;17.95;11.10;;;10.10;99.90;;;;;;5016776;28;20370;-83
2024/03/31 01:45:55;;;;;;;19.40;11.83;;;10.10;99.90;;;;;;5017362;28;20026;-84
2024/03/31 01:48:21;;;;;;;18.92;11.40;;;10.10;99.90;;;;;;5016423;28;20054;-84
2024/03/31 01:50:46;;;;;;;17.70;11.13;;;10.20;99.90;;;;;;5031897;28;20398;-84
2024/03/31 01:53:12;;;;;;;16.30;9.90;;;10.20;99.90;;;;;;5031977;28;20528;-84
2024/03/31 01:55:39;;;;;;;15.87;10.50;;;10.10;99.90;;;;;;5031843;28;20029;-84
2024/03/31 01:58:05;;;;;;;15.57;9.77;;;10.10;99.90;;;;;;5016346;28;20128;-83
2024/03/31 02:00:31;;;;;;;16.37;10.40;;;10.10;99.90;;;;;;5031569;28;20072;-84
2024/03/31 02:02:59;;;;;;;15.70;9.53;;;10.10;99.90;;;;;;5016699;28;20037;-83
2024/03/31 02:05:25;;;;;;;15.70;8.97;;;10.00;99.90;;;;;;5016237;28;20022;-85
2024/03/31 02:07:51;;;;;;;16.60;9.10;;;10.00;99.90;;;;;;5031552;28;20033;-85
2024/03/31 02:10:17;;;;;;;12.27;7.77;;;10.00;99.90;;;;;;5031524;28;20029;-85
2024/03/31 02:12:42;;;;;;;14.07;7.93;;;10.00;99.90;;;;;;5016438;28;20105;-84
2024/03/31 02:15:08;;;;;;;15.43;8.83;;;10.00;99.90;;;;;;5016219;28;20033;-84
2024/03/31 02:17:33;;;;;;;13.57;8.20;;;9.90;99.90;;;;;;5031554;28;20029;-85
2024/03/31 02:19:59;;;;;;;12.60;7.77;;;9.90;99.90;;;;;;5016149;28;20033;-84
2024/03/31 02:22:25;;;;;;;13.73;7.53;;;9.90;99.90;;;;;;5014785;28;20029;-85
2024/03/31 02:24:50;;;;;;;13.00;7.70;;;9.90;99.90;;;;;;5015955;28;20034;-85
2024/03/31 02:27:16;;;;;;;11.83;6.63;;;9.90;99.90;;;;;;5016018;28;20056;-85
2024/03/31 02:29:42;;;;;;;12.27;7.03;;;9.80;99.90;;;;;;5031386;28;20033;-85
2024/03/31 02:32:08;;;;;;;10.83;6.43;;;9.80;99.90;;;;;;5014392;28;20026;-85
2024/03/31 02:34:34;;;;;;;13.13;7.37;;;9.80;99.90;;;;;;5015579;28;20394;-84
2024/03/31 02:37:03;;;;;;;10.80;6.80;;;9.80;99.90;;;;;;5031078;28;20024;-85
2024/03/31 02:39:29;;;;;;;10.27;6.20;;;9.80;99.90;;;;;;5031362;28;20025;-85
2024/03/31 02:41:54;;;;;;;11.37;6.43;;;9.80;99.90;;;;;;5030701;28;20113;-84
2024/03/31 02:44:21;;;;;;;11.07;6.73;;;9.80;99.90;;;;;;5015718;28;20030;-85
2024/03/31 02:46:47;;;;;;;10.67;6.23;;;9.80;99.90;;;;;;5030820;28;20026;-85
2024/03/31 02:49:13;;;;;;;10.07;6.00;;;9.80;99.90;;;;;;5014708;28;20048;-85
2024/03/31 02:51:38;;;;;;;11.00;6.67;;;9.80;99.90;;;;;;5030825;28;20470;-85
2024/03/31 02:54:04;;;;;;;10.60;6.53;;;9.80;99.90;;;;;;5015692;28;20034;-85
2024/03/31 02:56:29;;;;;;;11.27;6.60;;;9.80;99.90;;;;;;5015256;28;20494;-85
2024/03/31 02:58:55;;;;;;;8.77;5.23;;;9.80;99.90;;;;;;5015520;28;20380;-85
2024/03/31 03:01:21;;;;;;;10.10;5.77;;;9.80;99.90;;;;;;5015338;28;20163;-86
2024/03/31 03:03:47;;;;;;;10.33;5.40;;;9.80;99.90;;;;;;5031115;28;20359;-85
2024/03/31 03:06:13;;;;;;;9.07;5.43;;;9.80;99.90;;;;;;5015431;28;20029;-84
2024/03/31 03:08:39;;;;;;;8.13;4.77;;;9.80;99.90;;;;;;5015512;28;20072;-85
2024/03/31 03:11:05;;;;;;;7.97;4.53;;;9.80;99.90;;;;;;5030289;28;20026;-84
2024/03/31 03:13:30;;;;;;;8.33;4.97;;;9.80;99.90;;;;;;5030334;28;20089;-84
2024/03/31 03:15:56;;;;;;;9.10;5.60;;;9.90;99.90;;;;;;5014936;28;20036;-85
2024/03/31 03:18:22;;;;;;;8.80;5.43;;;9.80;99.90;;;;;;5014904;28;20036;-85
2024/03/31 03:20:48;;;;;;;10.77;5.00;;;9.80;99.90;;;;;;5015254;28;20022;-83
2024/03/31 03:23:14;;;;;;;8.27;5.23;;;9.80;99.90;;;;;;5014968;28;20084;-85
2024/03/31 03:25:40;;;;;;;7.97;4.50;;;9.80;99.90;;;;;;5014848;28;20033;-84
2024/03/31 03:28:06;;;;;;;7.67;4.23;;;9.80;99.90;;;;;;5030373;28;20034;-85
2024/03/31 03:30:36;;;;;;;7.83;4.40;;;9.70;99.90;;;;;;5014618;28;20064;-85
2024/03/31 03:33:01;;;;;;;9.97;4.53;;;9.70;99.90;;;;;;5029890;28;20045;-84
2024/03/31 03:35:27;;;;;;;7.60;4.33;;;9.70;99.90;;;;;;5014689;28;20466;-85
2024/03/31 03:37:52;;;;;;;9.13;4.23;;;9.70;99.90;;;;;;5014610;28;20094;-82
2024/03/31 03:40:18;;;;;;;9.33;5.67;;;9.70;99.90;;;;;;5014447;28;20037;-83
2024/03/31 03:42:44;;;;;;;9.03;4.67;;;9.60;99.90;;;;;;5014385;28;20393;-84
2024/03/31 03:45:09;;;;;;;7.40;4.10;;;9.60;99.90;;;;;;5014764;28;20470;-84
2024/03/31 03:47:35;;;;;;;7.07;4.47;;;9.60;99.90;;;;;;5014325;28;20045;-84
2024/03/31 03:50:00;;;;;;;8.13;4.67;;;9.60;99.90;;;;;;5029780;28;20083;-84
2024/03/31 03:52:26;;;;;;;7.73;4.73;;;9.50;99.90;;;;;;5014402;28;20028;-84
2024/03/31 03:54:52;;;;;;;8.10;4.20;;;9.50;99.90;;;;;;5029376;28;20068;-84
2024/03/31 03:57:17;;;;;;;8.03;4.80;;;9.50;99.90;;;;;;5014277;28;20113;-84
2024/03/31 03:59:43;;;;;;;7.47;4.70;;;9.50;99.90;;;;;;5013672;28;20100;-84
2024/03/31 04:02:09;;;;;;;9.40;4.37;;;9.50;99.90;;;;;;5014107;28;20022;-84
2024/03/31 04:04:34;;;;;;;7.30;4.50;;;9.40;99.90;;;;;;5014171;28;20025;-84
2024/03/31 04:07:00;;;;;;;8.73;5.20;;;9.40;99.90;;;;;;5029365;28;20386;-84
2024/03/31 04:09:29;;;;;;;6.50;4.20;;;9.50;99.90;;;;;;5029247;28;20026;-84
2024/03/31 04:11:56;;;;;;;8.57;4.43;;;9.40;99.90;;;;;;5014070;28;20041;-85
2024/03/31 04:14:23;;;;;;;7.07;4.00;;;9.50;99.90;;;;;;5014208;28;20037;-85
2024/03/31 04:16:49;;;;;;;9.40;4.70;;;9.50;99.90;;;;;;5029081;28;20116;-84
2024/03/31 04:19:14;;;;;;;8.10;5.03;;;9.50;99.90;;;;;;5029375;28;20153;-84
2024/03/31 04:21:40;;;;;;;8.20;5.07;;;9.50;99.90;;;;;;5014040;28;20172;-84
2024/03/31 04:24:07;;;;;;;9.10;5.43;;;9.50;99.90;;;;;;5013820;28;20465;-84
2024/03/31 04:26:33;;;;;;;10.57;5.87;;;9.50;99.90;;;;;;5013747;28;20026;-84
2024/03/31 04:29:00;;;;;;;8.83;5.30;;;9.50;99.90;;;;;;5013507;28;20141;-84
2024/03/31 04:31:26;;;;;;;9.90;5.93;;;9.50;99.90;;;;;;5013208;28;20561;-84
2024/03/31 04:33:52;;;;;;;9.60;5.90;;;9.60;99.90;;;;;;5029173;28;20030;-83
2024/03/31 04:36:18;;;;;;;9.30;6.40;;;9.50;99.90;;;;;;5014044;28;20033;-84
2024/03/31 04:38:43;;;;;;;9.67;6.00;;;9.50;99.90;;;;;;5013574;28;20033;-85
2024/03/31 04:41:09;;;;;;;10.90;6.37;;;9.60;99.90;;;;;;5013824;28;20363;-84
2024/03/31 04:43:35;;;;;;;9.97;5.93;;;9.60;99.90;;;;;;5013617;28;20031;-84
2024/03/31 04:46:06;;;;;;;10.53;6.90;;;9.60;99.90;;;;;;5028770;28;20030;-84
2024/03/31 04:48:33;;;;;;;10.40;6.77;;;9.70;99.90;;;;;;5013431;28;20111;-84
2024/03/31 04:51:03;;;;;;;9.67;6.43;;;9.60;99.90;;;;;;5013421;28;20080;-83
2024/03/31 04:53:29;;;;;;;9.77;6.10;;;9.60;99.90;;;;;;5028790;28;20079;-84
2024/03/31 04:55:54;;;;;;;10.00;6.50;;;9.60;99.90;;;;;;5013490;28;20022;-82
2024/03/31 04:58:21;;;;;;;9.00;5.87;;;9.60;99.90;;;;;;5013522;28;20374;-84
2024/03/31 05:00:47;;;;;;;10.70;7.30;;;9.60;99.90;;;;;;5028934;28;20037;-84
2024/03/31 05:03:12;;;;;;;10.03;7.17;;;9.60;99.90;;;;;;5029743;28;20018;-84
2024/03/31 05:05:38;;;;;;;9.40;6.63;;;9.60;99.90;;;;;;5018034;28;20103;-84
2024/03/31 05:08:04;;;;;;;9.33;6.57;;;9.60;99.90;;;;;;5031670;28;20045;-84
2024/03/31 05:10:30;;;;;;;9.90;6.23;;;9.60;99.90;;;;;;5032248;28;20112;-83
2024/03/31 05:12:56;;;;;;;10.50;6.60;;;9.60;99.90;;;;;;5032551;28;20413;-84
2024/03/31 05:15:22;;;;;;;10.97;6.50;;;9.60;99.90;;;;;;5032943;28;20572;-83
2024/03/31 05:17:48;;;;;;;10.13;6.17;;;9.60;99.90;;;;;;5033249;28;20076;-83
2024/03/31 05:20:13;;;;;;;11.23;7.20;;;9.60;99.90;;;;;;5032616;28;20018;-83
2024/03/31 05:22:39;;;;;;;11.00;7.33;;;9.60;99.90;;;;;;5031421;28;20026;-83
2024/03/31 05:25:05;;;;;;;9.63;6.67;;;9.50;99.90;;;;;;5031529;28;20099;-82
2024/03/31 05:27:30;;;;;;;10.83;7.30;;;9.60;99.90;;;;;;5032580;28;20033;-82
2024/03/31 05:29:56;;;;;;;10.33;6.77;;;9.60;99.90;;;;;;5032654;28;20055;-82
2024/03/31 05:32:21;;;;;;;9.17;6.23;;;9.60;99.90;;;;;;5032783;28;20084;-83
2024/03/31 05:34:47;;;;;;;10.93;7.80;;;9.60;99.90;;;;;;5032525;28;20041;-82
2024/03/31 05:37:12;;;;;;;10.83;6.93;;;9.60;99.90;;;;;;5031375;28;20029;-82
2024/03/31 05:39:38;;;;;;;10.40;6.73;;;9.60;99.90;;;;;;5030870;28;20118;-81
2024/03/31 05:42:04;;;;;;;11.03;7.57;;;9.60;99.90;;;;;;5031339;28;20466;-82
2024/03/31 05:44:29;;;;;;;13.10;8.03;;;9.60;99.90;;;;;;5031402;28;20032;-82
2024/03/31 05:46:55;;;;;;;13.10;7.83;;;9.60;99.90;;;;;;5032620;28;20026;-82
2024/03/31 05:49:21;;;;;;;12.33;7.83;;;9.60;99.90;;;;;;5032292;28;20053;-82
2024/03/31 05:51:46;;;;;;;11.50;8.17;;;9.60;99.90;;;;;;5031822;28;20120;-82
2024/03/31 05:54:12;;;;;;;12.57;8.43;;;9.50;99.90;;;;;;5031132;28;20021;-82
2024/03/31 05:56:38;;;;;;;12.40;8.77;;;9.60;99.90;;;;;;5031180;28;20021;-82
2024/03/31 05:59:04;;;;;;;12.53;8.17;;;9.60;99.90;;;;;;5030990;28;20030;-82
2024/03/31 06:01:30;;;;;;;13.47;9.47;;;9.70;99.90;;;;;;5032047;28;20477;-82
2024/03/31 06:03:56;;;;;;;16.10;10.57;;;9.60;99.90;;;;;;5032101;28;20029;-83
2024/03/31 06:06:21;;;;;;;14.63;10.27;;;9.60;99.90;;;;;;5032857;28;20036;-82
2024/03/31 06:08:47;;;;;;;14.10;10.30;;;9.60;99.90;;;;;;5031062;28;20065;-80
2024/03/31 06:11:14;;;;;;;13.53;9.17;;;9.60;99.90;;;;;;5030955;28;20113;-81
2024/03/31 06:13:40;;;;;;;13.73;9.80;;;9.60;99.90;;;;;;5031049;28;20018;-82
2024/03/31 06:16:06;;;;;;;12.67;9.17;;;9.60;99.90;;;;;;5031906;28;20080;-82
2024/03/31 06:18:31;;;;;;;17.43;10.53;;;9.60;99.90;;;;;;5031939;28;20481;-82
2024/03/31 06:20:57;;;;;;;13.30;9.40;;;9.70;99.90;;;;;;5030963;28;20382;-82
2024/03/31 06:23:23;;;;;;;15.10;10.50;;;9.70;99.90;;;;;;5033060;28;20032;-82
2024/03/31 06:25:58;;;;;;;13.90;10.03;;;9.80;99.90;;;;;;5028319;28;20022;-82
2024/03/31 06:28:24;;;;;;;13.33;10.03;;;9.70;99.90;;;;;;5016005;28;20076;-83
2024/03/31 06:30:50;;;;;;;14.87;10.00;;;9.80;99.90;;;;;;5015513;28;20030;-83
2024/03/31 06:33:15;;;;;;;13.47;10.00;;;9.70;99.90;;;;;;5014386;28;20444;-83
2024/03/31 06:35:41;;;;;;;16.57;10.70;;;9.80;99.90;;;;;;5015626;28;20042;-83
2024/03/31 06:38:07;;;;;;;14.73;10.83;;;9.80;99.90;;;;;;5015972;28;20022;-83
2024/03/31 06:40:33;;;;;;;15.53;10.10;;;9.80;99.90;;;;;;5015690;28;20071;-83
2024/03/31 06:42:59;;;;;;;16.00;10.97;;;9.90;99.90;;;;;;5015667;28;20029;-83
2024/03/31 06:45:26;;;;;;;14.83;10.50;;;9.90;99.90;;;;;;5014166;28;20449;-82
2024/03/31 06:47:52;;;;;;;14.93;11.13;;;10.00;99.90;;;;;;5015322;28;20034;-83
2024/03/31 06:50:17;;;;;;;15.67;10.77;;;10.00;99.90;;;;;;5014559;28;20018;-84
2024/03/31 06:52:43;;;;;;;15.10;10.20;;;10.10;99.90;;;;;;5015710;28;20498;-84
2024/03/31 06:55:08;;;;;;;16.93;11.77;;;10.20;99.90;;;;;;5015352;28;20071;-84
2024/03/31 06:57:34;;;;;;;16.10;11.18;;;10.30;99.90;;;;;;5015406;28;20126;-84
2024/03/31 06:59:59;;;;;;;15.63;10.98;;;10.40;99.90;;;;;;5015685;28;20482;-83
2024/03/31 07:02:26;;;;;;;16.60;11.38;;;10.40;99.90;;;;;;5015007;28;20030;-84
2024/03/31 07:04:52;;;;;;;16.60;11.82;;;10.50;99.90;;;;;;5013784;28;20397;-84
2024/03/31 07:07:18;;;;;;;15.75;11.15;;;10.50;99.90;;;;;;5016668;28;20026;-84
2024/03/31 07:09:44;;;;;;;15.23;10.50;;;10.60;99.90;;;;;;5034211;28;20041;-83
2024/03/31 07:12:09;;;;;;;15.30;10.68;;;10.70;99.90;;;;;;5033625;28;20033;-83
2024/03/31 07:14:36;;;;;;;17.33;11.85;;;10.80;99.90;;;;;;5032584;28;20497;-83
2024/03/31 07:17:01;;;;;;;16.52;11.48;;;10.90;99.90;;;;;;5033943;28;20053;-84
2024/03/31 07:19:27;;;;;;;16.90;11.52;;;10.90;99.90;;;;;;5033410;28;20064;-83
2024/03/31 07:21:53;;;;;;;15.50;11.20;;;10.90;99.90;;;;;;5033310;28;20066;-84
2024/03/31 07:24:19;;;;;;;16.02;11.98;;;11.00;99.90;;;;;;5033922;28;20193;-83
2024/03/31 07:26:44;;;;;;;15.43;11.15;;;11.00;99.90;;;;;;5031801;28;20022;-83
2024/03/31 07:29:10;;;;;;;16.23;11.93;;;11.00;99.90;;;;;;5034370;28;20096;-83
2024/03/31 07:31:36;;;;;;;16.48;12.20;;;11.10;99.90;;;;;;5033770;28;20029;-83
2024/03/31 07:34:04;;;;;;;16.73;11.82;;;11.10;99.90;;;;;;5034328;28;20021;-83
2024/03/31 07:36:30;;;;;;;16.05;11.45;;;11.10;99.90;;;;;;5034448;28;20017;-83
2024/03/31 07:38:56;;;;;;;17.35;12.27;;;11.20;99.90;;;;;;5032199;28;20021;-82
2024/03/31 07:41:21;;;;;;;16.17;11.88;;;11.20;99.90;;;;;;5030267;28;20103;-83
2024/03/31 07:43:48;;;;;;;20.02;12.60;;;11.20;99.90;;;;;;5032659;28;20033;-83
2024/03/31 07:46:13;;;;;;;15.75;11.85;;;11.20;99.90;;;;;;5033702;28;20037;-83
2024/03/31 07:48:39;;;;;;;18.42;11.95;;;11.30;99.90;;;;;;5032166;28;20049;-83
2024/03/31 07:51:04;;;;;;;16.70;11.55;;;11.40;99.90;;;;;;5030956;28;20488;-83
2024/03/31 07:53:30;;;;;;;15.90;11.98;;;11.50;99.90;;;;;;5033815;28;20428;-83
2024/03/31 07:56:00;;;;;;;16.35;11.40;;;11.60;99.90;;;;;;5033667;28;20033;-83
2024/03/31 07:58:26;;;;;;;21.40;11.15;;;11.70;99.90;;;;;;5031159;28;20030;-83
2024/03/31 08:00:54;;;;;;;16.42;11.43;;;11.70;99.90;;;;;;5033538;28;20542;-83
2024/03/31 08:03:20;;;;;;;16.13;10.85;;;11.80;99.90;;;;;;5032218;28;20029;-83
2024/03/31 08:05:46;;;;;;;16.60;11.30;;;11.80;99.90;;;;;;5033804;28;20021;-83
2024/03/31 08:08:12;;;;;;;16.67;11.65;;;11.80;99.90;;;;;;5032563;28;20381;-83
2024/03/31 08:10:38;;;;;;;15.57;10.60;;;11.80;99.90;;;;;;5033323;28;20037;-83
2024/03/31 08:13:04;;;;;;;15.77;11.02;;;11.80;99.90;;;;;;5032303;28;20018;-83
2024/03/31 08:15:30;;;;;;;15.98;11.38;;;11.90;99.90;;;;;;5033435;28;20075;-83
2024/03/31 08:17:55;;;;;;;14.98;10.90;;;11.90;99.90;;;;;;5032457;28;20029;-83
2024/03/31 08:20:21;;;;;;;14.75;10.15;;;12.00;99.90;;;;;;5033600;28;20053;-83
2024/03/31 08:22:46;;;;;;;14.07;9.80;;;12.10;99.90;;;;;;5033479;28;20473;-83
2024/03/31 08:25:12;;;;;;;17.25;11.40;;;12.20;99.90;;;;;;5031281;28;20009;-83
2024/03/31 08:27:38;;;;;;;16.48;11.02;;;12.30;99.90;;;;;;5033061;28;20080;-83
2024/03/31 08:30:04;;;;;;;15.20;9.95;;;12.30;99.90;;;;;;5031539;28;20117;-83
2024/03/31 08:32:29;;;;;;;14.93;10.68;;;12.40;99.90;;;;;;5032753;28;20036;-82
2024/03/31 08:34:55;;;;;;;15.90;11.07;;;12.50;99.90;;;;;;5032806;28;20022;-83
2024/03/31 08:37:20;;;;;;;16.13;11.18;;;12.60;99.90;;;;;;5031886;28;20010;-83
2024/03/31 08:39:46;;;;;;;17.77;10.93;;;12.60;99.90;;;;;;5031409;28;20462;-84
2024/03/31 08:42:40;;;;;;;18.15;11.23;;;12.60;99.90;;;;;;5031320;28;20063;-83
2024/03/31 08:45:08;;;;;;;15.67;11.03;;;12.70;99.90;;;;;;5030391;28;20028;-83
2024/03/31 08:47:34;;;;;;;18.23;11.70;;;12.70;99.90;;;;;;5032397;28;20014;-82
2024/03/31 08:50:00;;;;;;;16.35;10.73;;;12.80;99.90;;;;;;5032710;28;20075;-84
2024/03/31 08:52:27;;;;;;;17.10;10.57;;;12.90;99.90;;;;;;5032512;28;20445;-84
2024/03/31 08:54:55;;;;;;;16.63;10.15;;;13.00;99.90;;;;;;5032358;28;20096;-84
2024/03/31 08:57:21;;;;;;;15.68;9.80;;;13.10;99.90;;;;;;5032764;28;20035;-84
2024/03/31 08:59:48;;;;;;;14.55;10.05;;;13.20;99.90;;;;;;5033079;28;20481;-84
2024/03/31 09:02:23;;;;;;;13.07;8.85;;;13.30;99.90;;;;;;5031620;28;20504;-83
2024/03/31 09:04:50;;;;;;;14.95;9.70;;;13.30;99.90;;;;;;5033626;28;20029;-84
2024/03/31 09:07:16;;;;;;;15.95;9.73;;;13.40;99.90;;;;;;5031947;28;20036;-85
2024/03/31 09:09:42;;;;;;;15.80;9.73;;;13.50;99.90;;;;;;5031783;28;20013;-84
2024/03/31 09:12:09;;;;;;;11.73;8.43;;;13.50;99.90;;;;;;5031509;28;20025;-85
2024/03/31 09:14:37;;;;;;;14.75;9.52;;;13.60;99.90;;;;;;5033124;28;20417;-86
2024/03/31 09:17:06;;;;;;;18.50;11.32;;;13.60;99.90;;;;;;5031242;28;20036;-85
2024/03/31 09:19:31;;;;;;;16.63;11.40;;;13.70;99.90;;;;;;5032714;28;20025;-85
2024/03/31 09:21:59;;;;;;;16.08;11.38;;;13.80;99.90;;;;;;5032937;28;20022;-85
2024/03/31 09:24:24;;;;;;;17.48;9.93;;;13.90;99.90;;;;;;5015420;28;20036;-83
2024/03/31 09:26:50;;;;;;;17.65;10.18;;;14.10;99.90;;;;;;5031579;28;20013;-84
2024/03/31 09:29:16;;;;;;;14.38;9.40;;;14.20;99.90;;;;;;5031421;28;20529;-83
2024/03/31 09:31:43;;;;;;;13.15;9.18;;;14.30;99.90;;;;;;5030638;28;20034;-83
2024/03/31 09:34:08;;;;;;;13.48;8.45;;;14.50;99.90;;;;;;5032746;28;20032;-83
2024/03/31 09:36:38;;;;;;;14.20;7.97;;;14.70;99.90;;;;;;5032186;28;20101;-84
2024/03/31 09:39:04;;;;;;;14.07;8.98;;;14.80;99.90;;;;;;5032279;28;20559;-85
2024/03/31 09:41:30;;;;;;;17.77;9.40;;;14.90;99.90;;;;;;5030635;28;20026;-84
2024/03/31 09:43:57;;;;;;;15.38;8.45;;;15.10;99.90;;;;;;5031672;28;20022;-84
2024/03/31 09:46:23;;;;;;;12.38;7.72;;;15.20;99.90;;;;;;5032103;28;20017;-83
2024/03/31 09:48:52;;;;;;;16.17;8.07;;;15.30;99.90;;;;;;5030617;28;20041;-84
2024/03/31 09:51:22;;;;;;;12.93;7.28;;;15.50;99.90;;;;;;5030758;28;20539;-85
2024/03/31 09:53:59;;;;;;;19.52;7.53;;;15.60;99.90;;;;;;5030801;28;20024;-84
2024/03/31 09:56:34;;;;;;;15.23;7.78;;;15.80;99.90;;;;;;5030589;28;20024;-84
2024/03/31 09:59:03;;;;;;;12.10;7.38;;;15.90;99.90;;;;;;5032728;28;20044;-84
2024/03/31 10:01:31;;;;;;;11.38;7.43;;;16.00;99.90;;;;;;5034360;28;20047;-84
2024/03/31 10:04:04;;;;;;;13.95;7.55;;;16.20;99.70;;;;;;5034760;28;20076;-84
2024/03/31 10:06:32;;;;;;;13.75;8.63;;;16.30;99.40;;;;;;5033359;28;20465;-84
2024/03/31 10:08:57;;;;;;;15.30;8.52;;;16.40;99.10;;;;;;5034361;28;20462;-84
2024/03/31 10:11:26;;;;;;;17.17;7.90;;;16.60;98.80;;;;;;5034107;28;20036;-85
2024/03/31 10:13:53;;;;;;;13.32;8.48;;;16.70;98.50;;;;;;5029091;28;20661;-85
2024/03/31 10:16:20;;;;;;;10.27;6.22;;;16.90;98.10;;;;;;5031560;28;20014;-85
2024/03/31 10:18:46;;;;;;;11.38;7.63;;;17.20;97.80;;;;;;5034356;28;20025;-85
2024/03/31 10:21:13;;;;;;;14.60;7.00;;;17.50;97.30;;;;;;5033618;28;20045;-85
2024/03/31 10:23:42;;;;;;;11.52;6.43;;;17.90;97.50;;;;;;5034421;28;20025;-84
2024/03/31 10:26:10;;;;;;;9.50;5.55;;;18.40;97.90;;;;;;5035105;28;20026;-85
2024/03/31 10:28:36;;;;;;;10.38;4.43;;;19.00;97.80;;;;;;5034069;28;20021;-85
2024/03/31 10:31:02;;;;;;;10.60;4.63;;;19.70;97.80;;;;;;5035168;28;20079;-86
2024/03/31 10:33:28;;;;;;;9.82;3.97;;;20.40;97.30;;;;;;5034935;28;20373;-86
2024/03/31 10:35:54;;;;;;;6.78;2.97;;;21.20;96.80;;;;;;5034368;28;20025;-85
2024/03/31 10:38:20;;;;;;;8.85;3.33;;;22.00;95.90;;;;;;5034414;28;20469;-87
2024/03/31 10:40:47;;;;;;;9.57;3.38;;;22.70;94.30;;;;;;5033882;28;20032;-86
2024/03/31 10:43:13;;;;;;;9.25;4.35;;;23.30;92.20;;;;;;5034342;28;20014;-86
2024/03/31 10:45:39;;;;;;;6.90;3.70;;;23.70;90.60;;;;;;5036004;28;20033;-86
2024/03/31 10:48:06;;;;;;;9.35;3.58;;;24.10;88.30;;;;;;5034947;28;20069;-86
2024/03/31 10:50:32;;;;;;;10.07;2.95;;;24.40;85.30;;;;;;5034894;28;20029;-86
2024/03/31 10:52:57;;;;;;;8.75;3.03;;;24.90;82.60;;;;;;5035013;28;20021;-86
2024/03/31 10:55:23;;;;;;;9.48;2.70;;;25.40;78.30;;;;;;5034658;28;20037;-86
2024/03/31 10:57:58;;;;;;;7.43;3.03;;;25.70;73.60;;;;;;5033948;28;20010;-89
2024/03/31 11:00:24;;;;;;;8.57;3.53;;;25.70;68.40;;;;;;5034359;28;20018;-87
2024/03/31 11:02:51;;;;;;;9.00;3.00;;;25.50;63.60;;;;;;5034794;28;20022;-86
2024/03/31 11:05:20;;;;;;;8.65;3.22;;;25.40;64.80;;;;;;5034293;28;20680;-87
2024/03/31 11:07:47;;;;;;;9.55;3.33;;;25.10;63.20;;;;;;5031747;28;20053;-85
2024/03/31 11:10:15;;;;;;;8.52;3.05;;;24.70;62.50;;;;;;5034855;28;20024;-87
2024/03/31 11:12:42;;;;;;;7.32;3.20;;;24.60;63.60;;;;;;5034410;28;20021;-86
2024/03/31 11:15:09;;;;;;;9.15;3.22;;;24.80;63.90;;;;;;5033203;28;20022;-86
2024/03/31 11:17:34;;;;;;;8.45;3.25;;;25.20;64.20;;;;;;5034549;28;20017;-89
2024/03/31 11:20:02;;;;;;;8.82;3.00;;;25.80;63.30;;;;;;5033104;28;20025;-86
2024/03/31 11:22:30;;;;;;;8.52;2.65;;;26.20;61.50;;;;;;5033743;28;20022;-87
2024/03/31 11:24:57;;;;;;;10.55;3.25;;;26.70;61.10;;;;;;5035490;28;20021;-87
2024/03/31 11:27:23;;;;;;;6.97;2.63;;;27.30;60.90;;;;;;5035100;28;20048;-87
2024/03/31 11:29:50;;;;;;;9.40;2.88;;;27.70;59.80;;;;;;5034842;28;20035;-88
2024/03/31 11:32:16;;;;;;;8.73;2.72;;;27.90;58.30;;;;;;5034504;28;20030;-88
2024/03/31 11:34:50;;;;;;;9.90;3.00;;;28.10;56.60;;;;;;5034746;28;20477;-88
2024/03/31 11:37:16;;;;;;;11.27;2.63;;;28.40;56.50;;;;;;5034233;28;20489;-87
2024/03/31 11:39:43;;;;;;;6.50;2.13;;;28.70;56.80;;;;;;5033657;28;20028;-89
2024/03/31 11:42:09;;;;;;;10.45;2.75;;;29.10;56.70;;;;;;5034869;28;20022;-90
2024/03/31 11:44:36;;;;;;;11.18;2.83;;;29.30;55.70;;;;;;5034762;28;20032;-89
2024/03/31 11:47:06;;;;;;;12.23;3.35;;;29.60;54.50;;;;;;5033410;28;20025;-88
2024/03/31 11:49:33;;;;;;;8.63;3.22;;;29.80;53.30;;;;;;5034463;28;20040;-88
2024/03/31 11:51:59;;;;;;;9.02;2.95;;;30.00;52.90;;;;;;5033383;28;20029;-89
2024/03/31 11:54:26;;;;;;;9.63;2.40;;;30.30;52.40;;;;;;5034744;28;20026;-89
2024/03/31 11:56:52;;;;;;;7.57;2.08;;;30.60;52.30;;;;;;5034735;28;20029;-89
2024/03/31 11:59:21;;;;;;;9.35;2.42;;;30.80;51.60;;;;;;5025599;28;20071;-89
2024/03/31 12:01:59;;;;;;;8.98;2.10;;;31.10;51.20;;;;;;5035346;28;20557;-89
2024/03/31 12:04:29;;;;;;;9.18;1.83;;;31.10;49.80;;;;;;5034028;28;20021;-89
2024/03/31 12:06:55;;;;;;;7.97;2.40;;;30.70;49.40;;;;;;5033193;28;20030;-88
2024/03/31 12:09:23;;;;;;;6.43;1.70;;;30.20;48.10;;;;;;5034362;28;20481;-88
2024/03/31 12:11:49;;;;;;;9.68;2.22;;;29.70;48.70;;;;;;5032416;28;20104;-88
2024/03/31 12:14:15;;;;;;;10.85;1.90;;;29.20;48.50;;;;;;5033099;28;20028;-88
2024/03/31 12:16:43;;;;;;;8.73;2.13;;;28.70;48.80;;;;;;5034033;28;20033;-88
2024/03/31 12:19:09;;;;;;;8.35;1.70;;;28.30;49.10;;;;;;5033777;28;20109;-87
2024/03/31 12:21:36;;;;;;;7.90;1.80;;;27.90;49.50;;;;;;5031855;28;20024;-87
2024/03/31 12:24:05;;;;;;;8.02;1.98;;;27.70;49.20;;;;;;5031746;28;20082;-87
2024/03/31 12:26:31;;;;;;;7.28;1.40;;;27.20;49.20;;;;;;5035142;28;20494;-87
2024/03/31 12:28:57;;;;;;;5.95;1.63;;;26.70;49.80;;;;;;5032355;28;20014;-85
2024/03/31 12:31:24;;;;;;;7.63;1.83;;;26.20;50.10;;;;;;5033499;28;20034;-87
2024/03/31 12:33:50;;;;;;;10.43;2.28;;;25.70;50.50;;;;;;5033477;28;20079;-85
2024/03/31 12:36:15;;;;;;;8.63;1.80;;;25.30;50.90;;;;;;5033563;28;20053;-86